sensor_id;sensor_type;location;lat;lon;timestamp;P1;durP1;ratioP1;P2;durP2;ratioP2
57317;SDS011;43157;50.982;18.132;2023-02-01T00:01:32;10.20;;;2.40;;
57317;SDS011;43157;50.982;18.132;2023-02-01T00:03:58;8.80;;;2.00;;
57317;SDS011;43157;50.982;18.132;2023-02-01T00:06:24;14.60;;;2.50;;
57317;SDS011;43157;50.982;18.132;2023-02-01T00:08:52;11.50;;;1.70;;
57317;SDS011;43157;50.982;18.132;2023-02-01T00:11:19;13.80;;;1.90;;
57317;SDS011;43157;50.982;18.132;2023-02-01T00:13:45;13.30;;;2.20;;
57317;SDS011;43157;50.982;18.132;2023-02-01T00:16:12;14.20;;;1.90;;
57317;SDS011;43157;50.982;18.132;2023-02-01T00:18:39;13.00;;;2.00;;
57317;SDS011;43157;50.982;18.132;2023-02-01T00:21:05;11.80;;;2.50;;
57317;SDS011;43157;50.982;18.132;2023-02-01T00:23:34;10.00;;;1.30;;
57317;SDS011;43157;50.982;18.132;2023-02-01T00:26:01;12.90;;;2.10;;
57317;SDS011;43157;50.982;18.132;2023-02-01T00:28:27;10.20;;;2.30;;
57317;SDS011;43157;50.982;18.132;2023-02-01T00:31:00;10.10;;;1.80;;
57317;SDS011;43157;50.982;18.132;2023-02-01T00:35:57;11.60;;;2.60;;
57317;SDS011;43157;50.982;18.132;2023-02-01T00:38:26;9.50;;;2.30;;
57317;SDS011;43157;50.982;18.132;2023-02-01T00:40:52;10.80;;;1.80;;
57317;SDS011;43157;50.982;18.132;2023-02-01T00:43:18;9.30;;;1.50;;
57317;SDS011;43157;50.982;18.132;2023-02-01T00:45:45;10.40;;;1.30;;
57317;SDS011;43157;50.982;18.132;2023-02-01T00:48:11;7.50;;;1.50;;
57317;SDS011;43157;50.982;18.132;2023-02-01T00:50:41;9.60;;;1.60;;
57317;SDS011;43157;50.982;18.132;2023-02-01T00:53:08;13.50;;;1.50;;
57317;SDS011;43157;50.982;18.132;2023-02-01T00:55:35;13.70;;;1.50;;
57317;SDS011;43157;50.982;18.132;2023-02-01T00:58:01;8.20;;;1.10;;
57317;SDS011;43157;50.982;18.132;2023-02-01T01:00:26;9.10;;;1.40;;
57317;SDS011;43157;50.982;18.132;2023-02-01T01:02:52;9.50;;;1.20;;
57317;SDS011;43157;50.982;18.132;2023-02-01T01:05:18;7.90;;;0.90;;
57317;SDS011;43157;50.982;18.132;2023-02-01T01:07:44;9.30;;;1.10;;
57317;SDS011;43157;50.982;18.132;2023-02-01T01:10:10;12.60;;;1.80;;
57317;SDS011;43157;50.982;18.132;2023-02-01T01:12:36;11.20;;;2.00;;
57317;SDS011;43157;50.982;18.132;2023-02-01T01:15:01;7.10;;;1.10;;
57317;SDS011;43157;50.982;18.132;2023-02-01T01:17:27;6.20;;;0.90;;
57317;SDS011;43157;50.982;18.132;2023-02-01T01:19:53;5.90;;;0.80;;
57317;SDS011;43157;50.982;18.132;2023-02-01T01:22:19;10.20;;;1.10;;
57317;SDS011;43157;50.982;18.132;2023-02-01T01:24:44;4.90;;;0.60;;
57317;SDS011;43157;50.982;18.132;2023-02-01T01:27:10;8.00;;;0.80;;
57317;SDS011;43157;50.982;18.132;2023-02-01T01:29:35;4.90;;;0.50;;
57317;SDS011;43157;50.982;18.132;2023-02-01T01:32:01;7.60;;;0.70;;
57317;SDS011;43157;50.982;18.132;2023-02-01T01:34:27;4.10;;;0.70;;
57317;SDS011;43157;50.982;18.132;2023-02-01T01:36:52;4.30;;;0.70;;
57317;SDS011;43157;50.982;18.132;2023-02-01T01:39:18;4.20;;;0.70;;
57317;SDS011;43157;50.982;18.132;2023-02-01T01:41:44;12.40;;;1.10;;
57317;SDS011;43157;50.982;18.132;2023-02-01T01:47:13;6.20;;;0.70;;
57317;SDS011;43157;50.982;18.132;2023-02-01T01:49:39;3.80;;;0.60;;
57317;SDS011;43157;50.982;18.132;2023-02-01T01:52:05;7.80;;;0.80;;
57317;SDS011;43157;50.982;18.132;2023-02-01T01:54:33;6.90;;;1.20;;
57317;SDS011;43157;50.982;18.132;2023-02-01T01:57:02;6.60;;;0.70;;
57317;SDS011;43157;50.982;18.132;2023-02-01T01:59:30;4.70;;;0.60;;
57317;SDS011;43157;50.982;18.132;2023-02-01T02:01:57;5.70;;;0.90;;
57317;SDS011;43157;50.982;18.132;2023-02-01T02:04:23;5.90;;;1.10;;
57317;SDS011;43157;50.982;18.132;2023-02-01T02:06:54;3.60;;;0.90;;
57317;SDS011;43157;50.982;18.132;2023-02-01T02:09:23;4.30;;;0.80;;
57317;SDS011;43157;50.982;18.132;2023-02-01T02:11:49;8.80;;;1.00;;
57317;SDS011;43157;50.982;18.132;2023-02-01T02:14:15;5.50;;;0.80;;
57317;SDS011;43157;50.982;18.132;2023-02-01T02:33:34;9.40;;;1.20;;
57317;SDS011;43157;50.982;18.132;2023-02-01T02:36:20;8.50;;;1.00;;
57317;SDS011;43157;50.982;18.132;2023-02-01T02:39:07;5.70;;;0.90;;
57317;SDS011;43157;50.982;18.132;2023-02-01T02:47:30;6.40;;;0.90;;
57317;SDS011;43157;50.982;18.132;2023-02-01T02:53:32;6.40;;;0.90;;
57317;SDS011;43157;50.982;18.132;2023-02-01T02:56:20;8.00;;;1.00;;
57317;SDS011;43157;50.982;18.132;2023-02-01T02:59:06;11.60;;;1.70;;
57317;SDS011;43157;50.982;18.132;2023-02-01T03:01:52;4.70;;;0.80;;
57317;SDS011;43157;50.982;18.132;2023-02-01T03:04:36;3.50;;;0.80;;
57317;SDS011;43157;50.982;18.132;2023-02-01T03:07:11;7.70;;;0.70;;
57317;SDS011;43157;50.982;18.132;2023-02-01T03:10:03;12.30;;;1.00;;
57317;SDS011;43157;50.982;18.132;2023-02-01T03:12:32;8.90;;;1.60;;
57317;SDS011;43157;50.982;18.132;2023-02-01T03:15:20;5.80;;;0.50;;
57317;SDS011;43157;50.982;18.132;2023-02-01T03:17:54;7.00;;;0.70;;
57317;SDS011;43157;50.982;18.132;2023-02-01T03:20:21;5.20;;;0.50;;
57317;SDS011;43157;50.982;18.132;2023-02-01T03:22:47;5.90;;;0.80;;
57317;SDS011;43157;50.982;18.132;2023-02-01T03:25:16;4.90;;;0.50;;
57317;SDS011;43157;50.982;18.132;2023-02-01T03:27:49;7.70;;;0.90;;
57317;SDS011;43157;50.982;18.132;2023-02-01T03:30:31;5.60;;;0.80;;
57317;SDS011;43157;50.982;18.132;2023-02-01T03:33:08;6.60;;;0.80;;
57317;SDS011;43157;50.982;18.132;2023-02-01T03:35:57;6.90;;;0.90;;
57317;SDS011;43157;50.982;18.132;2023-02-01T03:41:27;5.20;;;0.80;;
57317;SDS011;43157;50.982;18.132;2023-02-01T03:43:54;9.70;;;2.20;;
57317;SDS011;43157;50.982;18.132;2023-02-01T03:46:30;11.00;;;1.70;;
57317;SDS011;43157;50.982;18.132;2023-02-01T03:49:02;12.70;;;1.80;;
57317;SDS011;43157;50.982;18.132;2023-02-01T03:51:31;12.60;;;1.50;;
57317;SDS011;43157;50.982;18.132;2023-02-01T03:53:57;6.80;;;1.30;;
57317;SDS011;43157;50.982;18.132;2023-02-01T03:56:24;13.60;;;2.10;;
57317;SDS011;43157;50.982;18.132;2023-02-01T03:58:50;11.40;;;1.70;;
57317;SDS011;43157;50.982;18.132;2023-02-01T04:01:26;18.40;;;2.60;;
57317;SDS011;43157;50.982;18.132;2023-02-01T04:03:52;13.10;;;1.90;;
57317;SDS011;43157;50.982;18.132;2023-02-01T04:06:18;12.80;;;1.70;;
57317;SDS011;43157;50.982;18.132;2023-02-01T04:08:44;15.00;;;2.40;;
57317;SDS011;43157;50.982;18.132;2023-02-01T04:11:09;11.00;;;1.80;;
57317;SDS011;43157;50.982;18.132;2023-02-01T04:13:35;18.30;;;1.90;;
57317;SDS011;43157;50.982;18.132;2023-02-01T04:16:00;16.70;;;1.70;;
57317;SDS011;43157;50.982;18.132;2023-02-01T04:18:26;14.40;;;2.00;;
57317;SDS011;43157;50.982;18.132;2023-02-01T04:20:51;14.60;;;1.70;;
57317;SDS011;43157;50.982;18.132;2023-02-01T04:23:17;11.60;;;1.60;;
57317;SDS011;43157;50.982;18.132;2023-02-01T04:25:43;16.50;;;1.50;;
57317;SDS011;43157;50.982;18.132;2023-02-01T04:28:09;10.60;;;2.00;;
57317;SDS011;43157;50.982;18.132;2023-02-01T04:30:35;11.60;;;1.30;;
57317;SDS011;43157;50.982;18.132;2023-02-01T04:33:00;10.50;;;1.60;;
57317;SDS011;43157;50.982;18.132;2023-02-01T04:35:29;10.50;;;1.90;;
57317;SDS011;43157;50.982;18.132;2023-02-01T04:37:54;6.90;;;1.30;;
57317;SDS011;43157;50.982;18.132;2023-02-01T04:40:20;16.90;;;2.20;;
57317;SDS011;43157;50.982;18.132;2023-02-01T04:42:46;11.30;;;1.30;;
57317;SDS011;43157;50.982;18.132;2023-02-01T04:45:11;9.90;;;1.20;;
57317;SDS011;43157;50.982;18.132;2023-02-01T04:47:37;9.70;;;1.70;;
57317;SDS011;43157;50.982;18.132;2023-02-01T04:50:02;10.30;;;2.20;;
57317;SDS011;43157;50.982;18.132;2023-02-01T04:52:28;10.60;;;1.80;;
57317;SDS011;43157;50.982;18.132;2023-02-01T04:54:54;12.80;;;1.70;;
57317;SDS011;43157;50.982;18.132;2023-02-01T04:57:23;15.10;;;1.60;;
57317;SDS011;43157;50.982;18.132;2023-02-01T04:59:49;7.90;;;1.60;;
57317;SDS011;43157;50.982;18.132;2023-02-01T05:14:09;15.50;;;1.80;;
57317;SDS011;43157;50.982;18.132;2023-02-01T05:16:34;16.40;;;2.30;;
57317;SDS011;43157;50.982;18.132;2023-02-01T05:19:00;16.00;;;2.40;;
57317;SDS011;43157;50.982;18.132;2023-02-01T05:21:26;7.80;;;1.80;;
57317;SDS011;43157;50.982;18.132;2023-02-01T05:23:52;11.70;;;2.20;;
57317;SDS011;43157;50.982;18.132;2023-02-01T05:26:36;17.50;;;3.20;;
57317;SDS011;43157;50.982;18.132;2023-02-01T05:29:02;13.30;;;2.30;;
57317;SDS011;43157;50.982;18.132;2023-02-01T05:31:29;15.60;;;2.50;;
57317;SDS011;43157;50.982;18.132;2023-02-01T05:33:54;13.30;;;2.60;;
57317;SDS011;43157;50.982;18.132;2023-02-01T05:36:20;14.30;;;2.50;;
57317;SDS011;43157;50.982;18.132;2023-02-01T05:38:46;24.80;;;5.10;;
57317;SDS011;43157;50.982;18.132;2023-02-01T05:41:12;15.80;;;2.60;;
57317;SDS011;43157;50.982;18.132;2023-02-01T05:43:38;15.40;;;2.50;;
57317;SDS011;43157;50.982;18.132;2023-02-01T05:46:04;13.60;;;2.10;;
57317;SDS011;43157;50.982;18.132;2023-02-01T05:48:29;16.50;;;2.30;;
57317;SDS011;43157;50.982;18.132;2023-02-01T05:50:55;9.80;;;1.80;;
57317;SDS011;43157;50.982;18.132;2023-02-01T05:53:21;15.60;;;2.70;;
57317;SDS011;43157;50.982;18.132;2023-02-01T05:55:46;13.90;;;2.00;;
57317;SDS011;43157;50.982;18.132;2023-02-01T05:58:12;11.90;;;2.00;;
57317;SDS011;43157;50.982;18.132;2023-02-01T06:00:38;12.90;;;2.00;;
57317;SDS011;43157;50.982;18.132;2023-02-01T06:03:04;14.20;;;1.90;;
57317;SDS011;43157;50.982;18.132;2023-02-01T06:05:30;9.40;;;1.30;;
57317;SDS011;43157;50.982;18.132;2023-02-01T06:07:55;10.60;;;2.10;;
57317;SDS011;43157;50.982;18.132;2023-02-01T06:10:22;10.00;;;1.60;;
57317;SDS011;43157;50.982;18.132;2023-02-01T06:12:48;14.20;;;1.90;;
57317;SDS011;43157;50.982;18.132;2023-02-01T06:15:14;16.20;;;1.90;;
57317;SDS011;43157;50.982;18.132;2023-02-01T06:17:43;12.30;;;2.10;;
57317;SDS011;43157;50.982;18.132;2023-02-01T06:20:11;10.10;;;1.50;;
57317;SDS011;43157;50.982;18.132;2023-02-01T06:22:37;17.20;;;2.90;;
57317;SDS011;43157;50.982;18.132;2023-02-01T06:25:04;13.30;;;2.60;;
57317;SDS011;43157;50.982;18.132;2023-02-01T06:27:31;17.00;;;4.80;;
57317;SDS011;43157;50.982;18.132;2023-02-01T06:29:57;14.90;;;2.10;;
57317;SDS011;43157;50.982;18.132;2023-02-01T06:32:22;13.20;;;2.30;;
57317;SDS011;43157;50.982;18.132;2023-02-01T06:34:48;18.20;;;4.10;;
57317;SDS011;43157;50.982;18.132;2023-02-01T06:37:14;27.30;;;4.40;;
57317;SDS011;43157;50.982;18.132;2023-02-01T06:39:43;25.50;;;4.80;;
57317;SDS011;43157;50.982;18.132;2023-02-01T06:42:08;21.40;;;4.60;;
57317;SDS011;43157;50.982;18.132;2023-02-01T06:44:34;15.60;;;3.70;;
57317;SDS011;43157;50.982;18.132;2023-02-01T06:46:59;20.70;;;5.10;;
57317;SDS011;43157;50.982;18.132;2023-02-01T06:49:25;18.70;;;3.70;;
57317;SDS011;43157;50.982;18.132;2023-02-01T06:51:50;18.60;;;4.70;;
57317;SDS011;43157;50.982;18.132;2023-02-01T06:54:16;20.20;;;3.90;;
57317;SDS011;43157;50.982;18.132;2023-02-01T06:56:42;11.00;;;1.80;;
57317;SDS011;43157;50.982;18.132;2023-02-01T06:59:07;14.10;;;3.50;;
57317;SDS011;43157;50.982;18.132;2023-02-01T07:01:33;19.50;;;4.20;;
57317;SDS011;43157;50.982;18.132;2023-02-01T07:03:59;17.70;;;4.10;;
57317;SDS011;43157;50.982;18.132;2023-02-01T07:06:25;18.50;;;4.70;;
57317;SDS011;43157;50.982;18.132;2023-02-01T07:08:50;26.30;;;8.10;;
57317;SDS011;43157;50.982;18.132;2023-02-01T07:11:17;16.60;;;4.00;;
57317;SDS011;43157;50.982;18.132;2023-02-01T07:13:44;15.80;;;4.00;;
57317;SDS011;43157;50.982;18.132;2023-02-01T07:16:11;17.50;;;3.90;;
57317;SDS011;43157;50.982;18.132;2023-02-01T07:18:38;16.90;;;2.90;;
57317;SDS011;43157;50.982;18.132;2023-02-01T07:21:05;10.80;;;2.30;;
57317;SDS011;43157;50.982;18.132;2023-02-01T07:23:30;17.10;;;4.00;;
57317;SDS011;43157;50.982;18.132;2023-02-01T07:25:57;17.90;;;2.90;;
57317;SDS011;43157;50.982;18.132;2023-02-01T07:28:29;20.80;;;2.90;;
57317;SDS011;43157;50.982;18.132;2023-02-01T07:31:29;17.20;;;2.40;;
57317;SDS011;43157;50.982;18.132;2023-02-01T07:33:50;15.80;;;2.80;;
57317;SDS011;43157;50.982;18.132;2023-02-01T07:36:20;17.10;;;2.80;;
57317;SDS011;43157;50.982;18.132;2023-02-01T07:38:45;16.00;;;3.60;;
57317;SDS011;43157;50.982;18.132;2023-02-01T07:41:15;18.00;;;3.10;;
57317;SDS011;43157;50.982;18.132;2023-02-01T07:43:41;17.10;;;4.10;;
57317;SDS011;43157;50.982;18.132;2023-02-01T07:46:06;20.40;;;4.30;;
57317;SDS011;43157;50.982;18.132;2023-02-01T07:48:32;13.80;;;2.60;;
57317;SDS011;43157;50.982;18.132;2023-02-01T07:51:02;10.20;;;2.40;;
57317;SDS011;43157;50.982;18.132;2023-02-01T07:53:33;12.90;;;2.00;;
57317;SDS011;43157;50.982;18.132;2023-02-01T07:55:59;22.60;;;4.70;;
57317;SDS011;43157;50.982;18.132;2023-02-01T07:58:26;16.30;;;3.90;;
57317;SDS011;43157;50.982;18.132;2023-02-01T08:00:52;13.20;;;2.80;;
57317;SDS011;43157;50.982;18.132;2023-02-01T08:03:37;14.40;;;2.60;;
57317;SDS011;43157;50.982;18.132;2023-02-01T08:06:03;15.30;;;2.10;;
57317;SDS011;43157;50.982;18.132;2023-02-01T08:08:29;16.70;;;2.30;;
57317;SDS011;43157;50.982;18.132;2023-02-01T08:10:59;11.20;;;2.20;;
57317;SDS011;43157;50.982;18.132;2023-02-01T08:13:25;11.10;;;1.60;;
57317;SDS011;43157;50.982;18.132;2023-02-01T08:15:51;12.70;;;3.00;;
57317;SDS011;43157;50.982;18.132;2023-02-01T08:18:16;12.20;;;2.10;;
57317;SDS011;43157;50.982;18.132;2023-02-01T08:20:43;28.60;;;2.20;;
57317;SDS011;43157;50.982;18.132;2023-02-01T08:23:11;13.70;;;2.80;;
57317;SDS011;43157;50.982;18.132;2023-02-01T08:25:37;23.40;;;4.60;;
57317;SDS011;43157;50.982;18.132;2023-02-01T08:28:04;14.10;;;4.00;;
57317;SDS011;43157;50.982;18.132;2023-02-01T08:30:31;25.70;;;5.90;;
57317;SDS011;43157;50.982;18.132;2023-02-01T08:32:57;20.60;;;3.40;;
57317;SDS011;43157;50.982;18.132;2023-02-01T08:35:23;20.30;;;4.20;;
57317;SDS011;43157;50.982;18.132;2023-02-01T08:37:52;18.30;;;3.10;;
57317;SDS011;43157;50.982;18.132;2023-02-01T08:40:17;16.80;;;3.90;;
57317;SDS011;43157;50.982;18.132;2023-02-01T08:42:44;15.80;;;3.00;;
57317;SDS011;43157;50.982;18.132;2023-02-01T08:45:26;20.10;;;5.20;;
57317;SDS011;43157;50.982;18.132;2023-02-01T08:47:54;18.50;;;6.70;;
57317;SDS011;43157;50.982;18.132;2023-02-01T08:50:21;26.30;;;6.80;;
57317;SDS011;43157;50.982;18.132;2023-02-01T08:52:47;17.40;;;4.20;;
57317;SDS011;43157;50.982;18.132;2023-02-01T08:55:13;24.10;;;5.20;;
57317;SDS011;43157;50.982;18.132;2023-02-01T08:57:39;21.80;;;5.20;;
57317;SDS011;43157;50.982;18.132;2023-02-01T09:00:07;25.10;;;6.30;;
57317;SDS011;43157;50.982;18.132;2023-02-01T09:02:35;28.00;;;6.50;;
57317;SDS011;43157;50.982;18.132;2023-02-01T09:05:01;14.80;;;2.90;;
57317;SDS011;43157;50.982;18.132;2023-02-01T09:07:26;20.90;;;4.20;;
57317;SDS011;43157;50.982;18.132;2023-02-01T09:09:52;17.60;;;3.70;;
57317;SDS011;43157;50.982;18.132;2023-02-01T09:12:20;13.20;;;3.40;;
57317;SDS011;43157;50.982;18.132;2023-02-01T09:14:45;19.10;;;4.00;;
57317;SDS011;43157;50.982;18.132;2023-02-01T09:17:11;19.70;;;3.80;;
57317;SDS011;43157;50.982;18.132;2023-02-01T09:19:38;13.40;;;2.70;;
57317;SDS011;43157;50.982;18.132;2023-02-01T09:22:04;14.90;;;2.60;;
57317;SDS011;43157;50.982;18.132;2023-02-01T09:24:30;18.00;;;2.70;;
57317;SDS011;43157;50.982;18.132;2023-02-01T09:26:56;15.80;;;3.20;;
57317;SDS011;43157;50.982;18.132;2023-02-01T09:29:21;19.60;;;4.30;;
57317;SDS011;43157;50.982;18.132;2023-02-01T09:31:47;19.20;;;4.70;;
57317;SDS011;43157;50.982;18.132;2023-02-01T09:34:13;20.30;;;4.70;;
57317;SDS011;43157;50.982;18.132;2023-02-01T09:36:38;15.30;;;3.30;;
57317;SDS011;43157;50.982;18.132;2023-02-01T09:39:04;10.50;;;2.10;;
57317;SDS011;43157;50.982;18.132;2023-02-01T09:52:39;15.30;;;2.70;;
57317;SDS011;43157;50.982;18.132;2023-02-01T09:55:13;10.60;;;2.80;;
57317;SDS011;43157;50.982;18.132;2023-02-01T09:57:52;22.40;;;4.40;;
57317;SDS011;43157;50.982;18.132;2023-02-01T10:00:50;17.90;;;4.10;;
57317;SDS011;43157;50.982;18.132;2023-02-01T10:03:18;30.40;;;6.70;;
57317;SDS011;43157;50.982;18.132;2023-02-01T10:24:53;17.30;;;5.90;;
57317;SDS011;43157;50.982;18.132;2023-02-01T10:27:34;15.40;;;2.70;;
57317;SDS011;43157;50.982;18.132;2023-02-01T10:30:06;17.30;;;3.10;;
57317;SDS011;43157;50.982;18.132;2023-02-01T10:32:43;15.10;;;3.20;;
57317;SDS011;43157;50.982;18.132;2023-02-01T10:35:16;13.60;;;2.40;;
57317;SDS011;43157;50.982;18.132;2023-02-01T10:37:48;19.40;;;3.40;;
57317;SDS011;43157;50.982;18.132;2023-02-01T10:40:19;13.90;;;2.90;;
57317;SDS011;43157;50.982;18.132;2023-02-01T10:42:50;12.80;;;2.90;;
57317;SDS011;43157;50.982;18.132;2023-02-01T10:45:18;16.10;;;2.30;;
57317;SDS011;43157;50.982;18.132;2023-02-01T10:47:45;12.80;;;2.70;;
57317;SDS011;43157;50.982;18.132;2023-02-01T10:53:01;18.40;;;6.50;;
57317;SDS011;43157;50.982;18.132;2023-02-01T10:58:16;15.50;;;3.80;;
57317;SDS011;43157;50.982;18.132;2023-02-01T11:01:04;14.90;;;4.00;;
57317;SDS011;43157;50.982;18.132;2023-02-01T11:06:11;18.30;;;4.70;;
57317;SDS011;43157;50.982;18.132;2023-02-01T11:08:57;15.70;;;4.30;;
57317;SDS011;43157;50.982;18.132;2023-02-01T11:11:25;12.30;;;3.70;;
57317;SDS011;43157;50.982;18.132;2023-02-01T11:16:21;8.10;;;2.20;;
57317;SDS011;43157;50.982;18.132;2023-02-01T11:21:21;12.90;;;2.10;;
57317;SDS011;43157;50.982;18.132;2023-02-01T11:23:47;14.20;;;4.20;;
57317;SDS011;43157;50.982;18.132;2023-02-01T11:26:23;10.50;;;2.40;;
57317;SDS011;43157;50.982;18.132;2023-02-01T11:28:51;12.40;;;3.40;;
57317;SDS011;43157;50.982;18.132;2023-02-01T11:31:19;17.20;;;3.90;;
57317;SDS011;43157;50.982;18.132;2023-02-01T11:33:52;7.70;;;2.20;;
57317;SDS011;43157;50.982;18.132;2023-02-01T11:36:21;10.80;;;2.10;;
57317;SDS011;43157;50.982;18.132;2023-02-01T11:41:55;10.60;;;2.10;;
57317;SDS011;43157;50.982;18.132;2023-02-01T11:44:22;15.10;;;3.00;;
57317;SDS011;43157;50.982;18.132;2023-02-01T11:46:54;6.40;;;1.00;;
57317;SDS011;43157;50.982;18.132;2023-02-01T12:16:44;40.80;;;15.20;;
57317;SDS011;43157;50.982;18.132;2023-02-01T12:24:46;12.40;;;3.10;;
57317;SDS011;43157;50.982;18.132;2023-02-01T12:30:43;7.50;;;2.40;;
57317;SDS011;43157;50.982;18.132;2023-02-01T12:36:39;17.60;;;5.10;;
57317;SDS011;43157;50.982;18.132;2023-02-01T12:41:50;9.70;;;2.50;;
57317;SDS011;43157;50.982;18.132;2023-02-01T12:44:40;12.80;;;3.90;;
57317;SDS011;43157;50.982;18.132;2023-02-01T12:50:30;8.00;;;2.40;;
57317;SDS011;43157;50.982;18.132;2023-02-01T12:53:42;16.20;;;5.00;;
57317;SDS011;43157;50.982;18.132;2023-02-01T12:56:01;13.20;;;4.30;;
57317;SDS011;43157;50.982;18.132;2023-02-01T12:58:40;12.40;;;4.00;;
57317;SDS011;43157;50.982;18.132;2023-02-01T13:04:20;8.80;;;2.70;;
57317;SDS011;43157;50.982;18.132;2023-02-01T13:06:51;8.70;;;2.20;;
57317;SDS011;43157;50.982;18.132;2023-02-01T13:09:28;13.40;;;4.10;;
57317;SDS011;43157;50.982;18.132;2023-02-01T13:12:10;14.30;;;4.50;;
57317;SDS011;43157;50.982;18.132;2023-02-01T13:14:49;52.50;;;16.50;;
57317;SDS011;43157;50.982;18.132;2023-02-01T13:19:53;20.50;;;6.70;;
57317;SDS011;43157;50.982;18.132;2023-02-01T13:22:24;24.70;;;8.80;;
57317;SDS011;43157;50.982;18.132;2023-02-01T13:25:11;14.60;;;6.30;;
57317;SDS011;43157;50.982;18.132;2023-02-01T13:27:55;16.90;;;5.80;;
57317;SDS011;43157;50.982;18.132;2023-02-01T13:30:30;13.50;;;5.00;;
57317;SDS011;43157;50.982;18.132;2023-02-01T13:35:55;13.70;;;4.10;;
57317;SDS011;43157;50.982;18.132;2023-02-01T13:44:03;15.50;;;5.00;;
57317;SDS011;43157;50.982;18.132;2023-02-01T13:46:42;10.90;;;3.90;;
57317;SDS011;43157;50.982;18.132;2023-02-01T13:49:17;15.20;;;4.40;;
57317;SDS011;43157;50.982;18.132;2023-02-01T13:51:46;13.90;;;4.80;;
57317;SDS011;43157;50.982;18.132;2023-02-01T13:57:06;18.50;;;6.30;;
57317;SDS011;43157;50.982;18.132;2023-02-01T13:59:54;12.20;;;3.90;;
57317;SDS011;43157;50.982;18.132;2023-02-01T14:21:12;12.40;;;5.30;;
57317;SDS011;43157;50.982;18.132;2023-02-01T14:24:04;19.30;;;8.40;;
57317;SDS011;43157;50.982;18.132;2023-02-01T14:26:47;17.40;;;6.70;;
57317;SDS011;43157;50.982;18.132;2023-02-01T14:29:36;26.20;;;7.30;;
57317;SDS011;43157;50.982;18.132;2023-02-01T14:37:02;25.10;;;9.40;;
57317;SDS011;43157;50.982;18.132;2023-02-01T14:41:59;26.90;;;8.30;;
57317;SDS011;43157;50.982;18.132;2023-02-01T14:44:28;33.40;;;12.20;;
57317;SDS011;43157;50.982;18.132;2023-02-01T14:52:39;16.50;;;6.80;;
57317;SDS011;43157;50.982;18.132;2023-02-01T14:55:16;24.30;;;8.60;;
57317;SDS011;43157;50.982;18.132;2023-02-01T14:57:44;15.10;;;4.20;;
57317;SDS011;43157;50.982;18.132;2023-02-01T15:02:51;10.40;;;3.20;;
57317;SDS011;43157;50.982;18.132;2023-02-01T15:05:35;12.20;;;3.40;;
57317;SDS011;43157;50.982;18.132;2023-02-01T15:08:05;11.20;;;3.80;;
57317;SDS011;43157;50.982;18.132;2023-02-01T15:10:52;9.60;;;3.00;;
57317;SDS011;43157;50.982;18.132;2023-02-01T15:13:20;17.00;;;5.30;;
57317;SDS011;43157;50.982;18.132;2023-02-01T15:16:04;26.30;;;8.00;;
57317;SDS011;43157;50.982;18.132;2023-02-01T15:18:30;23.80;;;7.40;;
57317;SDS011;43157;50.982;18.132;2023-02-01T15:21:01;16.90;;;5.60;;
57317;SDS011;43157;50.982;18.132;2023-02-01T15:23:28;13.60;;;4.30;;
57317;SDS011;43157;50.982;18.132;2023-02-01T15:25:54;14.60;;;4.40;;
57317;SDS011;43157;50.982;18.132;2023-02-01T15:28:20;29.60;;;8.80;;
57317;SDS011;43157;50.982;18.132;2023-02-01T15:30:53;31.80;;;9.70;;
57317;SDS011;43157;50.982;18.132;2023-02-01T15:33:27;17.00;;;5.10;;
57317;SDS011;43157;50.982;18.132;2023-02-01T15:38:35;31.50;;;10.10;;
57317;SDS011;43157;50.982;18.132;2023-02-01T15:41:19;19.30;;;5.90;;
57317;SDS011;43157;50.982;18.132;2023-02-01T15:49:01;23.50;;;7.80;;
57317;SDS011;43157;50.982;18.132;2023-02-01T15:51:28;25.10;;;6.50;;
57317;SDS011;43157;50.982;18.132;2023-02-01T15:54:04;20.60;;;5.80;;
57317;SDS011;43157;50.982;18.132;2023-02-01T15:56:39;22.30;;;6.20;;
57317;SDS011;43157;50.982;18.132;2023-02-01T15:59:13;13.10;;;3.70;;
57317;SDS011;43157;50.982;18.132;2023-02-01T16:01:41;13.80;;;3.00;;
57317;SDS011;43157;50.982;18.132;2023-02-01T16:06:44;15.30;;;4.00;;
57317;SDS011;43157;50.982;18.132;2023-02-01T16:09:22;16.00;;;4.90;;
57317;SDS011;43157;50.982;18.132;2023-02-01T16:11:57;21.40;;;7.10;;
57317;SDS011;43157;50.982;18.132;2023-02-01T16:14:24;13.80;;;4.00;;
57317;SDS011;43157;50.982;18.132;2023-02-01T16:16:51;22.10;;;7.80;;
57317;SDS011;43157;50.982;18.132;2023-02-01T16:19:19;13.70;;;5.00;;
57317;SDS011;43157;50.982;18.132;2023-02-01T16:21:45;23.60;;;8.20;;
57317;SDS011;43157;50.982;18.132;2023-02-01T16:24:11;18.10;;;7.30;;
57317;SDS011;43157;50.982;18.132;2023-02-01T16:26:39;19.70;;;7.20;;
57317;SDS011;43157;50.982;18.132;2023-02-01T16:29:05;15.50;;;6.90;;
57317;SDS011;43157;50.982;18.132;2023-02-01T16:31:37;21.70;;;8.60;;
57317;SDS011;43157;50.982;18.132;2023-02-01T16:34:04;29.20;;;11.50;;
57317;SDS011;43157;50.982;18.132;2023-02-01T16:36:31;38.20;;;14.30;;
57317;SDS011;43157;50.982;18.132;2023-02-01T16:38:58;23.00;;;8.00;;
57317;SDS011;43157;50.982;18.132;2023-02-01T16:41:24;28.10;;;8.80;;
57317;SDS011;43157;50.982;18.132;2023-02-01T16:43:51;26.20;;;9.90;;
57317;SDS011;43157;50.982;18.132;2023-02-01T16:46:22;20.00;;;5.90;;
57317;SDS011;43157;50.982;18.132;2023-02-01T16:49:00;18.30;;;5.00;;
57317;SDS011;43157;50.982;18.132;2023-02-01T16:51:28;14.90;;;5.60;;
57317;SDS011;43157;50.982;18.132;2023-02-01T16:53:57;18.70;;;6.70;;
57317;SDS011;43157;50.982;18.132;2023-02-01T16:56:23;23.50;;;7.80;;
57317;SDS011;43157;50.982;18.132;2023-02-01T16:58:54;28.60;;;9.00;;
57317;SDS011;43157;50.982;18.132;2023-02-01T17:01:19;43.00;;;14.10;;
57317;SDS011;43157;50.982;18.132;2023-02-01T17:03:45;30.30;;;9.60;;
57317;SDS011;43157;50.982;18.132;2023-02-01T17:06:12;23.10;;;8.20;;
57317;SDS011;43157;50.982;18.132;2023-02-01T17:08:44;33.20;;;14.10;;
57317;SDS011;43157;50.982;18.132;2023-02-01T17:11:12;27.00;;;9.20;;
57317;SDS011;43157;50.982;18.132;2023-02-01T17:13:38;31.10;;;8.20;;
57317;SDS011;43157;50.982;18.132;2023-02-01T17:16:18;21.50;;;7.00;;
57317;SDS011;43157;50.982;18.132;2023-02-01T17:18:51;17.90;;;5.00;;
57317;SDS011;43157;50.982;18.132;2023-02-01T17:21:22;19.10;;;5.10;;
57317;SDS011;43157;50.982;18.132;2023-02-01T17:23:48;18.60;;;6.50;;
57317;SDS011;43157;50.982;18.132;2023-02-01T17:26:14;21.40;;;5.40;;
57317;SDS011;43157;50.982;18.132;2023-02-01T17:28:39;22.40;;;6.90;;
57317;SDS011;43157;50.982;18.132;2023-02-01T17:31:05;18.90;;;4.90;;
57317;SDS011;43157;50.982;18.132;2023-02-01T17:33:32;14.90;;;4.30;;
57317;SDS011;43157;50.982;18.132;2023-02-01T17:36:00;13.50;;;3.40;;
57317;SDS011;43157;50.982;18.132;2023-02-01T17:38:28;8.30;;;2.30;;
57317;SDS011;43157;50.982;18.132;2023-02-01T17:40:53;19.30;;;3.30;;
57317;SDS011;43157;50.982;18.132;2023-02-01T17:43:20;25.30;;;6.10;;
57317;SDS011;43157;50.982;18.132;2023-02-01T17:48:17;15.20;;;4.10;;
57317;SDS011;43157;50.982;18.132;2023-02-01T17:50:44;19.20;;;7.70;;
57317;SDS011;43157;50.982;18.132;2023-02-01T17:53:11;16.90;;;6.20;;
57317;SDS011;43157;50.982;18.132;2023-02-01T17:55:40;18.70;;;5.80;;
57317;SDS011;43157;50.982;18.132;2023-02-01T17:58:08;16.70;;;5.00;;
57317;SDS011;43157;50.982;18.132;2023-02-01T18:00:37;18.20;;;5.80;;